Time;durP1;ratioP1;P1;durP2;ratioP2;P2;SDS_P1;SDS_P2;PMS_P1;PMS_P2;Temp;Humidity;BMP_temperature;BMP_pressure;BME280_temperature;BME280_humidity;BME280_pressure;Samples;Min_cycle;Max_cycle;Signal;HPM_P1;HPM_P2
2021/06/24 00:00:54;;;;;;;42.95;23.13;;;;;;;21.33;68.43;98608.53;5015637;28;20037;-78
2021/06/24 00:03:20;;;;;;;38.28;23.08;;;;;;;21.33;68.78;98607.72;5017218;28;20112;-77
2021/06/24 00:05:46;;;;;;;40.85;22.85;;;;;;;21.34;68.54;98595.38;5011099;28;20030;-76
2021/06/24 00:08:12;;;;;;;43.83;23.00;;;;;;;21.33;68.59;98600.16;5018301;28;20018;-76
2021/06/24 00:10:41;;;;;;;43.65;24.63;;;;;;;21.38;68.69;98604.63;5018413;28;20064;-76
2021/06/24 00:13:07;;;;;;;40.75;22.98;;;;;;;21.41;68.70;98601.91;5017799;28;20405;-77
2021/06/24 00:15:33;;;;;;;43.80;23.58;;;;;;;21.45;68.64;98599.22;5016873;28;20022;-76
2021/06/24 00:17:59;;;;;;;48.17;24.27;;;;;;;21.44;68.57;98583.66;5015976;28;20029;-76
2021/06/24 00:20:25;;;;;;;43.08;22.98;;;;;;;21.46;68.41;98569.31;5017333;28;20370;-76
2021/06/24 00:22:51;;;;;;;45.05;25.23;;;;;;;21.45;68.66;98549.00;5016360;28;20080;-76
2021/06/24 00:25:17;;;;;;;43.47;25.73;;;;;;;21.44;68.76;98541.81;5013882;28;20045;-76
2021/06/24 00:27:42;;;;;;;39.30;23.13;;;;;;;21.39;68.49;98544.88;5015507;28;20515;-75
2021/06/24 00:30:09;;;;;;;44.85;24.67;;;;;;;21.36;68.63;98540.84;5012659;28;20040;-76
2021/06/24 00:32:35;;;;;;;43.67;25.13;;;;;;;21.36;68.68;98543.66;5014187;28;20056;-76
2021/06/24 00:35:01;;;;;;;45.55;24.55;;;;;;;21.35;68.58;98533.66;5013653;28;20022;-76
2021/06/24 00:37:31;;;;;;;48.75;24.40;;;;;;;21.36;68.75;98534.47;5013744;28;20026;-76
2021/06/24 00:39:57;;;;;;;48.40;25.77;;;;;;;21.36;68.58;98534.47;5016814;28;20040;-76
2021/06/24 00:42:23;;;;;;;47.40;26.27;;;;;;;21.35;68.97;98536.44;5012320;28;20539;-76
2021/06/24 00:44:50;;;;;;;45.30;25.33;;;;;;;21.36;68.81;98540.03;5013611;28;20022;-78
2021/06/24 00:47:17;;;;;;;42.45;23.52;;;;;;;21.33;68.79;98533.22;5012387;28;20182;-78
2021/06/24 00:49:42;;;;;;;42.80;24.55;;;;;;;21.30;68.70;98542.31;5019206;28;20030;-79
2021/06/24 00:52:08;;;;;;;46.25;24.27;;;;;;;21.25;68.58;98537.03;5016747;28;20059;-78
2021/06/24 00:54:33;;;;;;;43.78;24.33;;;;;;;21.21;68.81;98536.94;5019232;28;20930;-78
2021/06/24 00:57:00;;;;;;;42.92;24.00;;;;;;;21.18;68.76;98539.66;5018988;28;20055;-78
2021/06/24 00:59:26;;;;;;;46.58;24.58;;;;;;;21.14;68.95;98539.59;5021713;28;20072;-78
2021/06/24 01:01:52;;;;;;;49.17;25.13;;;;;;;21.14;68.85;98545.19;5023283;28;20060;-78
2021/06/24 01:04:23;;;;;;;46.55;24.20;;;;;;;21.10;68.90;98541.50;5022067;28;20401;-78
2021/06/24 01:06:50;;;;;;;45.65;24.25;;;;;;;21.05;68.75;98542.56;5023646;28;20101;-79
2021/06/24 01:09:15;;;;;;;50.05;25.05;;;;;;;21.01;68.79;98530.53;5022251;28;20025;-77
2021/06/24 01:11:41;;;;;;;45.88;25.02;;;;;;;20.94;68.75;98517.25;5021353;28;20029;-78
2021/06/24 01:14:08;;;;;;;51.78;27.42;;;;;;;20.89;69.05;98516.75;5022117;28;20481;-79
2021/06/24 01:16:34;;;;;;;51.45;26.55;;;;;;;20.80;69.09;98520.53;5020174;28;20612;-79
2021/06/24 01:19:00;;;;;;;49.45;26.65;;;;;;;20.76;68.97;98521.59;5021003;28;20105;-79
2021/06/24 01:21:25;;;;;;;49.28;26.27;;;;;;;20.74;69.31;98526.72;5022218;28;20065;-79
2021/06/24 01:23:50;;;;;;;48.55;27.55;;;;;;;20.74;69.22;98530.31;5021675;28;20022;-79
2021/06/24 01:26:16;;;;;;;47.90;27.00;;;;;;;20.75;69.31;98518.00;5021620;28;20057;-79
2021/06/24 01:28:42;;;;;;;51.15;29.05;;;;;;;20.74;69.46;98516.38;5023347;28;21536;-78
2021/06/24 01:31:08;;;;;;;52.10;27.23;;;;;;;20.74;69.42;98515.59;5021773;28;20026;-78
2021/06/24 01:33:34;;;;;;;49.10;27.15;;;;;;;20.70;69.58;98520.25;5018461;28;20017;-79
2021/06/24 01:36:02;;;;;;;51.80;27.73;;;;;;;20.68;69.62;98517.81;5021838;28;20033;-79
2021/06/24 01:38:28;;;;;;;52.60;26.70;;;;;;;20.65;69.57;98518.53;5021920;28;20030;-78
2021/06/24 01:40:54;;;;;;;53.90;26.27;;;;;;;20.61;69.59;98509.28;5018111;28;20030;-79
2021/06/24 01:43:19;;;;;;;50.50;27.00;;;;;;;20.57;69.68;98500.06;5018337;28;20053;-79
2021/06/24 01:45:51;;;;;;;52.95;27.10;;;;;;;20.58;69.72;98498.91;5018573;28;20474;-78
2021/06/24 01:48:16;;;;;;;51.75;27.88;;;;;;;20.55;69.86;98510.78;5018908;28;20587;-79
2021/06/24 01:50:42;;;;;;;57.38;27.55;;;;;;;20.52;69.94;98499.19;5018593;28;20112;-78
2021/06/24 01:53:09;;;;;;;51.85;27.85;;;;;;;20.49;69.84;98507.44;5021064;28;20752;-79
2021/06/24 01:55:35;;;;;;;53.15;26.90;;;;;;;20.44;70.12;98516.06;5016641;28;20151;-78
2021/06/24 01:58:04;;;;;;;50.85;26.92;;;;;;;20.40;70.17;98521.56;5019938;28;20382;-78
2021/06/24 02:00:31;;;;;;;50.55;27.42;;;;;;;20.38;70.28;98521.13;5021161;28;20110;-78
2021/06/24 02:02:57;;;;;;;52.45;27.65;;;;;;;20.40;70.37;98516.00;5018725;28;20096;-78
2021/06/24 02:05:23;;;;;;;48.75;27.35;;;;;;;20.41;70.40;98514.00;5020238;28;20029;-79
2021/06/24 02:07:49;;;;;;;53.10;28.23;;;;;;;20.44;70.73;98516.06;5015695;28;20049;-78
2021/06/24 02:10:15;;;;;;;51.83;28.23;;;;;;;20.45;70.52;98501.78;5020977;28;20021;-79
2021/06/24 02:12:41;;;;;;;48.95;28.10;;;;;;;20.40;70.50;98495.66;5020121;28;20033;-78
2021/06/24 02:15:10;;;;;;;51.75;27.00;;;;;;;20.38;70.51;98493.25;5016387;28;20061;-79
2021/06/24 02:17:36;;;;;;;54.83;29.50;;;;;;;20.35;70.44;98493.97;5022665;28;20096;-78
2021/06/24 02:20:04;;;;;;;57.25;26.88;;;;;;;20.31;70.56;98488.34;5021385;28;20025;-79
2021/06/24 02:22:29;;;;;;;52.03;27.35;;;;;;;20.28;70.56;98493.81;5019589;28;20026;-79
2021/06/24 02:24:55;;;;;;;49.13;27.38;;;;;;;20.22;70.40;98496.06;5020589;28;20116;-79
2021/06/24 02:27:20;;;;;;;51.30;27.10;;;;;;;20.21;70.83;98494.44;5021884;28;20026;-79
2021/06/24 02:29:46;;;;;;;53.03;27.02;;;;;;;20.22;70.82;98490.50;5019594;28;20033;-79
2021/06/24 02:32:12;;;;;;;50.13;27.50;;;;;;;20.21;71.05;98486.88;5019332;28;20031;-79
2021/06/24 02:34:38;;;;;;;47.65;26.77;;;;;;;20.21;70.93;98486.09;5017178;28;20093;-79
2021/06/24 02:37:03;;;;;;;51.08;27.65;;;;;;;20.22;70.98;98490.50;5020949;28;20026;-79
2021/06/24 02:39:29;;;;;;;56.05;28.45;;;;;;;20.22;71.29;98493.28;5022279;28;20104;-79
2021/06/24 02:41:54;;;;;;;47.90;27.75;;;;;;;20.22;71.32;98485.72;5018599;28;20125;-79
2021/06/24 02:44:20;;;;;;;52.65;27.48;;;;;;;20.23;71.32;98476.19;5021326;28;20411;-78
2021/06/24 02:46:45;;;;;;;56.28;28.33;;;;;;;20.27;71.54;98481.88;5020420;28;20029;-78
2021/06/24 02:49:12;;;;;;;52.88;28.20;;;;;;;20.26;71.29;98474.69;5015961;28;20461;-79
2021/06/24 02:51:38;;;;;;;53.90;29.00;;;;;;;20.25;71.56;98484.19;5013979;28;20056;-79
2021/06/24 02:54:05;;;;;;;53.08;28.27;;;;;;;20.27;71.71;98481.88;5017788;28;20036;-78
2021/06/24 02:56:40;;;;;;;58.90;30.83;;;;;;;20.30;71.67;98489.50;5020001;28;20022;-78
2021/06/24 02:59:06;;;;;;;58.00;29.42;;;;;;;20.33;71.91;98491.56;5020141;28;20101;-78
2021/06/24 03:01:31;;;;;;;60.00;28.95;;;;;;;20.36;71.53;98503.94;5014207;28;20014;-78
2021/06/24 03:03:57;;;;;;;52.13;28.92;;;;;;;20.34;72.26;98509.91;5015376;28;20054;-79
2021/06/24 03:06:23;;;;;;;54.42;29.38;;;;;;;20.31;72.56;98512.56;5016020;28;20470;-78
2021/06/24 03:08:48;;;;;;;55.13;29.58;;;;;;;20.26;72.42;98510.88;5015023;28;20025;-79
2021/06/24 03:11:15;;;;;;;53.72;27.83;;;;;;;20.21;72.35;98511.94;5016277;28;20060;-79
2021/06/24 03:13:40;;;;;;;55.60;29.42;;;;;;;20.19;74.17;98511.50;5015249;28;20088;-78
2021/06/24 03:16:06;;;;;;;49.55;27.40;;;;;;;20.17;72.94;98504.69;5016353;28;20026;-78
2021/06/24 03:18:31;;;;;;;53.58;28.23;;;;;;;20.16;73.07;98514.19;5015088;28;20064;-78
2021/06/24 03:20:57;;;;;;;54.10;28.35;;;;;;;20.17;72.95;98518.59;5011605;28;20032;-78
2021/06/24 03:23:23;;;;;;;58.85;31.17;;;;;;;20.19;73.13;98524.63;5016994;28;20799;-78
2021/06/24 03:25:48;;;;;;;46.92;26.15;;;;;;;20.18;72.88;98526.59;5014233;28;20097;-78
2021/06/24 03:28:14;;;;;;;50.38;26.58;;;;;;;20.13;72.48;98515.75;5017115;28;20034;-78
2021/06/24 03:30:41;;;;;;;55.08;30.63;;;;;;;20.14;72.78;98525.72;5016720;28;20013;-78
2021/06/24 03:33:07;;;;;;;54.13;28.38;;;;;;;20.17;72.73;98521.38;5017623;28;20026;-78
2021/06/24 03:35:32;;;;;;;60.55;29.75;;;;;;;20.15;72.96;98516.19;5016382;28;20033;-78
2021/06/24 03:37:58;;;;;;;52.28;29.20;;;;;;;20.13;73.01;98531.63;5016637;28;20030;-78
2021/06/24 03:40:24;;;;;;;49.00;26.15;;;;;;;20.14;72.82;98533.25;5018675;28;20037;-78
2021/06/24 03:42:51;;;;;;;56.53;29.30;;;;;;;20.16;73.06;98545.66;5016659;28;20057;-78
2021/06/24 03:45:17;;;;;;;51.90;27.75;;;;;;;20.20;73.06;98540.97;5013079;28;20072;-79
2021/06/24 03:47:43;;;;;;;55.05;28.55;;;;;;;20.16;73.37;98545.66;5016160;28;20076;-79
2021/06/24 03:50:13;;;;;;;48.75;24.00;;;;;;;20.08;73.68;98546.63;5015177;28;20474;-78
2021/06/24 03:52:39;;;;;;;46.10;25.95;;;;;;;20.04;73.72;98546.53;5018540;28;20063;-77
2021/06/24 03:55:06;;;;;;;48.45;28.48;;;;;;;20.02;74.08;98548.06;5016329;28;20029;-77
2021/06/24 03:57:32;;;;;;;49.40;26.98;;;;;;;20.04;73.82;98556.84;5017778;28;20393;-78
2021/06/24 03:59:58;;;;;;;52.42;28.90;;;;;;;20.05;73.81;98537.00;5018461;28;20037;-78
2021/06/24 04:02:23;;;;;;;52.63;29.75;;;;;;;20.08;74.06;98536.28;5021165;28;20418;-78
2021/06/24 04:04:49;;;;;;;53.80;30.30;;;;;;;20.12;74.10;98533.63;5022218;28;20359;-78
2021/06/24 04:07:15;;;;;;;52.20;31.02;;;;;;;20.14;73.80;98531.28;5021317;28;20493;-78
2021/06/24 04:09:41;;;;;;;55.25;31.65;;;;;;;20.18;74.25;98526.59;5023842;28;20024;-78
2021/06/24 04:12:07;;;;;;;53.65;29.75;;;;;;;20.28;74.26;98519.69;5013849;28;20058;-78
2021/06/24 04:14:32;;;;;;;48.17;27.63;;;;;;;20.37;74.12;98511.97;5019248;28;20022;-79
2021/06/24 04:16:58;;;;;;;48.42;27.85;;;;;;;20.50;74.06;98500.69;5017806;28;20079;-78
2021/06/24 04:19:23;;;;;;;53.20;27.25;;;;;;;20.60;74.00;98486.22;5024065;28;20032;-80
2021/06/24 04:21:49;;;;;;;55.05;29.10;;;;;;;20.65;73.69;98499.88;5023333;28;20030;-80
2021/06/24 04:24:15;;;;;;;55.88;29.98;;;;;;;20.70;73.59;98500.75;5024319;28;20026;-80
2021/06/24 04:26:40;;;;;;;51.38;28.27;;;;;;;20.76;73.56;98502.09;5022675;28;20109;-80
2021/06/24 04:29:06;;;;;;;54.63;29.65;;;;;;;20.75;73.53;98506.84;5024354;28;20029;-79
2021/06/24 04:31:31;;;;;;;63.05;28.67;;;;;;;20.77;73.34;98523.25;5022652;28;20033;-80
2021/06/24 04:33:57;;;;;;;57.58;27.80;;;;;;;20.81;73.24;98544.44;5023682;28;20108;-80
2021/06/24 04:36:23;;;;;;;51.42;27.98;;;;;;;20.84;73.53;98564.41;5024698;28;20026;-79
2021/06/24 04:38:48;;;;;;;47.10;25.20;;;;;;;20.81;73.57;98589.03;5023749;28;20092;-79
2021/06/24 04:41:14;;;;;;;47.10;26.75;;;;;;;20.72;73.73;98624.63;5024173;28;20029;-79
2021/06/24 04:43:39;;;;;;;40.47;23.42;;;;;;;20.65;73.82;98638.38;5022624;28;20049;-77
2021/06/24 04:46:05;;;;;;;43.30;23.73;;;;;;;20.57;74.32;98647.75;5024177;28;20522;-78
2021/06/24 04:48:30;;;;;;;48.38;27.33;;;;;;;20.45;75.42;98631.91;5022563;28;20533;-78
2021/06/24 04:50:55;;;;;;;45.88;26.73;;;;;;;20.30;75.34;98616.78;5023062;28;20034;-77
2021/06/24 04:53:21;;;;;;;38.15;21.85;;;;;;;20.09;74.95;98615.06;5024272;28;20021;-78
2021/06/24 04:55:47;;;;;;;46.25;25.02;;;;;;;19.93;75.43;98621.41;5017239;28;20042;-78
2021/06/24 04:58:12;;;;;;;41.35;22.95;;;;;;;19.81;75.59;98624.19;5017704;28;20101;-79
2021/06/24 05:00:38;;;;;;;39.53;24.08;;;;;;;19.71;76.03;98628.28;5017628;28;20036;-77
2021/06/24 05:03:05;;;;;;;33.78;19.70;;;;;;;19.58;75.21;98615.59;5016159;28;20026;-79
2021/06/24 05:05:31;;;;;;;30.33;16.83;;;;;;;19.47;75.72;98599.41;5012481;28;20030;-77
2021/06/24 05:07:57;;;;;;;27.88;15.25;;;;;;;19.41;75.30;98606.38;5013495;28;20068;-79
2021/06/24 05:10:22;;;;;;;23.67;12.68;;;;;;;19.35;75.67;98596.66;5013124;28;20029;-78
2021/06/24 05:12:48;;;;;;;21.50;12.18;;;;;;;19.34;75.34;98589.47;5012143;28;20153;-80
2021/06/24 05:15:15;;;;;;;25.05;13.93;;;;;;;19.33;75.39;98591.47;5012144;28;20182;-77
2021/06/24 05:17:41;;;;;;;22.90;13.30;;;;;;;19.38;75.65;98590.41;5012108;28;20026;-78
2021/06/24 05:20:08;;;;;;;21.02;13.35;;;;;;;19.41;75.13;98597.22;5013416;28;20497;-78
2021/06/24 05:22:34;;;;;;;19.90;12.65;;;;;;;19.51;75.76;98593.16;5012846;28;20139;-78
2021/06/24 05:25:00;;;;;;;25.98;13.45;;;;;;;19.59;75.15;98581.03;5013563;28;20021;-78
2021/06/24 05:27:25;;;;;;;26.98;13.35;;;;;;;19.70;74.96;98559.09;5012446;28;20030;-78
2021/06/24 05:29:51;;;;;;;23.67;12.23;;;;;;;19.85;74.88;98565.88;5012569;28;20550;-78
2021/06/24 05:32:16;;;;;;;27.30;14.57;;;;;;;19.97;74.84;98560.25;5012337;28;20096;-77
2021/06/24 05:34:42;;;;;;;21.33;13.00;;;;;;;20.12;74.54;98567.03;5011452;28;20026;-77
2021/06/24 05:37:08;;;;;;;23.08;13.82;;;;;;;20.26;74.52;98551.84;5013254;28;20053;-78
2021/06/24 05:39:33;;;;;;;22.63;13.23;;;;;;;20.38;74.24;98543.41;5012292;28;20493;-78
2021/06/24 05:41:59;;;;;;;22.08;13.02;;;;;;;20.57;74.00;98545.44;5009572;28;20045;-78
2021/06/24 05:44:26;;;;;;;23.10;14.40;;;;;;;20.73;73.73;98539.06;5012589;28;20038;-77
2021/06/24 05:46:53;;;;;;;25.85;15.32;;;;;;;20.84;73.63;98542.09;5012682;28;20108;-77
2021/06/24 05:49:18;;;;;;;27.70;15.32;;;;;;;20.94;73.42;98535.97;5013250;28;20034;-78
2021/06/24 05:51:44;;;;;;;28.17;16.25;;;;;;;21.06;73.09;98546.19;5011139;28;20096;-76
2021/06/24 05:54:10;;;;;;;25.67;14.07;;;;;;;21.15;72.73;98535.63;5012596;28;20026;-77
2021/06/24 05:56:35;;;;;;;26.70;15.25;;;;;;;21.23;72.87;98534.59;5012013;28;20024;-77
2021/06/24 05:59:03;;;;;;;29.88;14.85;;;;;;;21.33;72.54;98530.44;5012387;28;20030;-76
2021/06/24 06:01:29;;;;;;;25.88;15.07;;;;;;;21.41;72.81;98517.44;5011229;28;20474;-76
2021/06/24 06:03:54;;;;;;;29.90;15.77;;;;;;;21.50;72.31;98514.41;5013801;28;20040;-78
2021/06/24 06:06:20;;;;;;;25.42;16.50;;;;;;;21.67;72.14;98519.56;5012527;28;20041;-77
2021/06/24 06:08:46;;;;;;;28.98;16.13;;;;;;;21.79;72.10;98512.22;5012491;28;20118;-77
2021/06/24 06:11:12;;;;;;;29.50;16.60;;;;;;;21.81;71.68;98504.25;5014464;28;20093;-77
2021/06/24 06:13:38;;;;;;;25.60;14.57;;;;;;;21.78;71.54;98500.22;5011902;28;20048;-77
2021/06/24 06:16:04;;;;;;;30.10;15.48;;;;;;;21.84;71.55;98511.88;5014381;28;20034;-77
2021/06/24 06:18:29;;;;;;;29.23;17.20;;;;;;;22.01;71.19;98525.38;5012196;28;20049;-76
2021/06/24 06:20:57;;;;;;;27.08;16.08;;;;;;;22.10;71.13;98515.94;5010352;28;20072;-75
2021/06/24 06:23:25;;;;;;;27.52;16.42;;;;;;;22.06;70.92;98498.31;5011641;28;20096;-75
2021/06/24 06:25:52;;;;;;;25.05;15.35;;;;;;;22.06;70.54;98496.31;5013800;28;20029;-75
2021/06/24 06:28:20;;;;;;;30.65;16.48;;;;;;;22.07;70.57;98505.50;5012126;28;20033;-75
2021/06/24 06:30:50;;;;;;;35.10;18.70;;;;;;;22.11;70.51;98501.59;5015032;28;20033;-75
2021/06/24 06:33:16;;;;;;;33.88;19.08;;;;;;;22.14;70.71;98497.25;5013181;28;20381;-77
2021/06/24 06:35:42;;;;;;;37.97;20.60;;;;;;;22.21;70.81;98502.94;5013771;28;20465;-76
2021/06/24 06:38:07;;;;;;;41.83;20.75;;;;;;;22.28;70.81;98500.28;5011893;28;20025;-78
2021/06/24 06:40:33;;;;;;;39.05;20.35;;;;;;;22.41;70.94;98497.28;5011183;28;20486;-77
2021/06/24 06:43:00;;;;;;;47.05;23.52;;;;;;;22.51;70.56;98488.31;5015161;28;20036;-79
2021/06/24 06:45:27;;;;;;;47.38;23.92;;;;;;;22.57;70.25;98488.78;5012055;28;20037;-78
2021/06/24 06:47:53;;;;;;;58.88;26.95;;;;;;;22.66;70.03;98497.69;5011962;28;20489;-79
2021/06/24 06:50:19;;;;;;;52.78;26.27;;;;;;;22.80;69.81;98494.28;5011877;28;20386;-78
2021/06/24 06:52:44;;;;;;;54.20;26.52;;;;;;;22.94;69.92;98512.47;5007161;28;20045;-80
2021/06/24 06:55:10;;;;;;;57.20;28.38;;;;;;;23.02;69.67;98503.00;5011715;28;20037;-79
2021/06/24 06:57:36;;;;;;;64.93;30.80;;;;;;;23.08;69.44;98509.06;5011224;28;20027;-81
2021/06/24 07:00:05;;;;;;;56.97;28.30;;;;;;;23.06;69.48;98501.03;5009865;28;20034;-80
2021/06/24 07:02:30;;;;;;;58.13;28.00;;;;;;;23.02;69.28;98497.41;5012477;28;20040;-81
2021/06/24 07:04:56;;;;;;;60.17;29.73;;;;;;;23.09;69.43;98511.47;5010518;28;20041;-82
2021/06/24 07:07:22;;;;;;;57.10;31.25;;;;;;;23.24;69.40;98508.88;5012977;28;20073;-83
2021/06/24 07:09:47;;;;;;;63.00;33.03;;;;;;;23.42;69.24;98511.91;5009928;28;20474;-81
2021/06/24 07:12:13;;;;;;;59.33;32.55;;;;;;;23.48;69.26;98522.38;5010678;28;20046;-80
2021/06/24 07:14:39;;;;;;;60.97;30.38;;;;;;;23.54;68.95;98516.44;5015589;28;20033;-82
2021/06/24 07:17:04;;;;;;;65.70;33.58;;;;;;;23.56;68.81;98516.84;5020400;28;20029;-82
2021/06/24 07:19:30;;;;;;;64.90;34.42;;;;;;;23.58;68.64;98517.28;5003854;28;20042;-83
2021/06/24 07:21:55;;;;;;;64.20;33.10;;;;;;;23.64;68.64;98527.75;5008124;28;20444;-77
2021/06/24 07:24:21;;;;;;;63.20;33.13;;;;;;;23.68;68.50;98521.38;5008820;28;20080;-83
2021/06/24 07:26:47;;;;;;;68.50;36.42;;;;;;;23.76;68.61;98517.47;5010784;28;20430;-77
2021/06/24 07:29:13;;;;;;;60.33;32.88;;;;;;;23.86;68.38;98521.56;5009868;28;20358;-80
2021/06/24 07:31:39;;;;;;;69.65;36.63;;;;;;;23.92;68.19;98520.03;5010146;28;20577;-82
2021/06/24 07:34:04;;;;;;;68.50;35.13;;;;;;;24.02;68.22;98527.78;5014647;28;20029;-81
2021/06/24 07:36:30;;;;;;;72.90;37.92;;;;;;;24.11;67.56;98527.44;5014202;28;20041;-78
2021/06/24 07:38:55;;;;;;;69.18;35.17;;;;;;;24.23;67.56;98526.38;5018582;28;20017;-79
2021/06/24 07:41:23;;;;;;;72.13;37.85;;;;;;;24.31;67.80;98530.81;5018604;28;20040;-84
2021/06/24 07:43:53;;;;;;;76.57;40.80;;;;;;;24.42;67.41;98538.53;5018654;28;20092;-82
2021/06/24 07:46:23;;;;;;;75.75;36.05;;;;;;;24.46;67.38;98542.16;5018905;28;20038;-81
2021/06/24 07:48:49;;;;;;;74.25;40.22;;;;;;;24.49;66.58;98541.38;5015133;28;20434;-77
2021/06/24 07:51:14;;;;;;;68.07;36.50;;;;;;;24.53;66.79;98547.81;5016349;28;20034;-82
2021/06/24 07:53:42;;;;;;;71.70;36.63;;;;;;;24.63;67.14;98547.13;5017712;28;20029;-80
2021/06/24 07:56:09;;;;;;;81.85;44.40;;;;;;;24.70;66.58;98548.34;5016124;28;20424;-82
2021/06/24 07:58:35;;;;;;;74.55;37.55;;;;;;;24.75;66.39;98542.41;5008159;28;20417;-81
2021/06/24 08:01:01;;;;;;;77.55;37.83;;;;;;;24.79;66.32;98537.63;5008446;28;20034;-79
2021/06/24 08:03:26;;;;;;;71.53;37.03;;;;;;;24.81;66.31;98544.47;5002082;28;20041;-85
2021/06/24 08:05:52;;;;;;;80.05;40.33;;;;;;;24.85;66.31;98538.06;5010230;28;20021;-75
2021/06/24 08:08:17;;;;;;;79.38;39.90;;;;;;;24.89;66.24;98536.06;5013119;28;20088;-79
2021/06/24 08:10:43;;;;;;;70.18;36.92;;;;;;;25.03;66.06;98532.56;5013028;28;20084;-80
2021/06/24 08:13:08;;;;;;;69.82;35.60;;;;;;;25.11;66.31;98518.19;5013715;28;20048;-77
2021/06/24 08:15:34;;;;;;;74.93;40.88;;;;;;;25.27;66.06;98522.63;5014570;28;20505;-76
2021/06/24 08:17:59;;;;;;;64.20;32.25;;;;;;;25.46;66.32;98521.56;5010728;28;20108;-76
2021/06/24 08:20:25;;;;;;;77.00;41.17;;;;;;;25.55;65.86;98510.75;5012418;28;20025;-79
2021/06/24 08:22:50;;;;;;;72.88;39.95;;;;;;;25.66;65.59;98513.63;5014570;28;20040;-85
2021/06/24 08:25:16;;;;;;;66.90;37.22;;;;;;;25.77;65.65;98513.63;5012754;28;20113;-77
2021/06/24 08:27:42;;;;;;;76.55;38.78;;;;;;;25.80;64.75;98512.84;5013847;28;20033;-74
2021/06/24 08:30:08;;;;;;;75.60;39.15;;;;;;;25.75;64.34;98512.41;5013696;28;20030;-78
2021/06/24 08:32:37;;;;;;;76.28;38.25;;;;;;;25.85;64.31;98509.63;5012288;28;20112;-76
2021/06/24 08:35:03;;;;;;;72.22;41.13;;;;;;;25.98;64.55;98507.25;5014758;28;20112;-76
2021/06/24 08:37:28;;;;;;;71.05;37.72;;;;;;;26.05;64.14;98511.28;5011632;28;20408;-81
2021/06/24 08:39:54;;;;;;;75.75;40.70;;;;;;;26.08;64.14;98511.25;5012215;28;20033;-76
2021/06/24 08:42:19;;;;;;;69.55;37.50;;;;;;;26.09;64.09;98509.25;5014941;28;20018;-73
2021/06/24 08:44:45;;;;;;;68.93;36.97;;;;;;;26.14;64.17;98504.06;5014602;28;20521;-77
2021/06/24 08:47:15;;;;;;;71.88;36.67;;;;;;;26.14;63.47;98506.88;5017624;28;20021;-76
2021/06/24 08:49:42;;;;;;;72.53;39.13;;;;;;;26.18;63.27;98508.91;5012549;28;20021;-83
2021/06/24 08:52:09;;;;;;;71.88;38.08;;;;;;;26.24;63.63;98510.09;5013059;28;20034;-79
2021/06/24 08:54:35;;;;;;;68.93;36.97;;;;;;;26.29;63.11;98507.69;5010846;28;20838;-76
2021/06/24 08:57:01;;;;;;;61.88;34.95;;;;;;;26.41;63.26;98517.72;5011993;28;20588;-76
2021/06/24 08:59:27;;;;;;;75.90;38.13;;;;;;;26.48;62.40;98514.13;5012676;28;20136;-77
2021/06/24 09:01:57;;;;;;;69.25;37.88;;;;;;;26.52;62.57;98506.47;5001951;28;20037;-83
2021/06/24 09:04:28;;;;;;;70.95;38.53;;;;;;;26.52;62.08;98508.47;5009366;28;20033;-78
2021/06/24 09:07:06;;;;;;;69.40;39.75;;;;;;;26.51;62.20;98509.69;5008702;28;20038;-75
2021/06/24 09:09:33;;;;;;;91.28;37.85;;;;;;;26.48;62.50;98500.06;5009818;28;20573;-77
2021/06/24 09:12:06;;;;;;;79.22;38.40;;;;;;;26.55;62.84;98507.69;5009516;28;20057;-80
2021/06/24 09:14:43;;;;;;;80.13;38.30;;;;;;;26.62;62.81;98506.84;5010745;28;20063;-83
2021/06/24 09:17:10;;;;;;;69.97;38.10;;;;;;;26.60;62.06;98501.66;5010020;28;20350;-77
2021/06/24 09:19:39;;;;;;;67.00;36.92;;;;;;;26.57;62.52;98499.66;5007419;28;20036;-76
2021/06/24 09:22:08;;;;;;;67.88;36.50;;;;;;;26.64;62.35;98498.81;5010587;28;20440;-77
2021/06/24 09:24:49;;;;;;;71.57;39.35;;;;;;;26.73;62.22;98497.19;5011367;28;20036;-78
2021/06/24 09:27:17;;;;;;;70.30;39.47;;;;;;;26.88;62.11;98511.25;5010740;28;20018;-76
2021/06/24 09:30:06;;;;;;;77.57;39.93;;;;;;;27.11;62.13;98504.34;5011113;28;20018;-77
2021/06/24 09:32:31;;;;;;;;;;;;;;;27.31;62.17;98499.88;5011573;28;20037;-77
2021/06/24 09:34:58;;;;;;;68.28;36.47;;;;;;;27.53;62.05;98504.63;5009004;28;19913;-78
2021/06/24 09:37:25;;;;;;;54.92;32.63;;;;;;;27.73;61.59;98497.25;5006290;28;20026;-77
2021/06/24 09:39:54;;;;;;;63.13;35.45;;;;;;;27.80;60.31;98499.25;5008960;28;20238;-77
2021/06/24 09:42:21;;;;;;;69.30;38.22;;;;;;;27.93;60.82;98503.16;5012999;28;20028;-73
2021/06/24 09:44:48;;;;;;;69.43;37.67;;;;;;;28.08;60.33;98503.88;5012276;28;20040;-77
2021/06/24 09:47:28;;;;;;;73.88;39.63;;;;;;;28.30;60.03;98494.47;5012749;28;20026;-76
2021/06/24 09:50:01;;;;;;;78.28;46.05;;;;;;;28.48;59.79;98500.75;5010871;28;20034;-77
2021/06/24 09:52:28;;;;;;;63.83;38.42;;;;;;;28.61;59.59;98506.66;5008869;28;20036;-77
2021/06/24 09:55:14;;;;;;;69.25;41.08;;;;;;;28.71;58.77;98492.88;5010298;28;20022;-78
2021/06/24 09:57:40;;;;;;;62.25;35.03;;;;;;;28.73;58.39;98498.91;4993061;28;20486;-80
2021/06/24 10:00:24;;;;;;;59.53;35.75;;;;;;;28.70;58.65;98500.56;5011693;28;20117;-83
2021/06/24 10:03:13;;;;;;;62.22;36.38;;;;;;;28.62;58.05;98494.16;5011545;28;20554;-79
2021/06/24 10:05:40;;;;;;;62.33;34.95;;;;;;;28.57;57.98;98491.78;5008258;28;20497;-79
2021/06/24 10:08:06;;;;;;;71.13;41.15;;;;;;;28.50;58.12;98492.66;5008856;28;20049;-83
2021/06/24 10:10:36;;;;;;;67.95;36.47;;;;;;;28.53;58.42;98489.00;5010221;28;20038;-77
2021/06/24 10:13:01;;;;;;;73.40;40.85;;;;;;;28.56;58.12;98480.94;5010271;28;20410;-78
2021/06/24 10:15:29;;;;;;;70.85;41.05;;;;;;;28.60;58.19;98484.53;5010443;28;20033;-76
2021/06/24 10:17:56;;;;;;;56.45;33.42;;;;;;;28.64;58.37;98483.25;5010481;28;20041;-77
2021/06/24 10:20:23;;;;;;;66.68;37.40;;;;;;;28.70;57.71;98485.63;5006790;28;20517;-79
2021/06/24 10:22:56;;;;;;;63.55;33.72;;;;;;;28.68;57.35;98486.84;5008909;28;20042;-87
2021/06/24 10:25:23;;;;;;;66.22;39.72;;;;;;;28.65;57.40;98482.03;5025836;28;20022;-85
2021/06/24 10:27:54;;;;;;;62.50;34.67;;;;;;;28.67;57.64;98476.00;5012205;28;20415;-82
2021/06/24 10:30:21;;;;;;;58.50;34.00;;;;;;;28.77;57.03;98482.78;5013362;28;20375;-77
2021/06/24 10:33:04;;;;;;;66.68;37.05;;;;;;;28.84;56.55;98484.69;5011111;28;20371;-80
2021/06/24 10:35:34;;;;;;;58.50;34.28;;;;;;;28.81;56.02;98481.50;5008967;28;20489;-81
2021/06/24 10:38:01;;;;;;;60.67;35.15;;;;;;;28.82;55.93;98480.28;5011015;28;20029;-87
2021/06/24 10:40:38;;;;;;;75.20;44.30;;;;;;;28.96;56.64;98478.53;5014497;28;20030;-84
2021/06/24 10:43:09;;;;;;;63.67;36.45;;;;;;;29.12;56.30;98475.09;5011227;28;20037;-81
2021/06/24 10:45:35;;;;;;;74.30;45.17;;;;;;;29.27;56.48;98470.88;5004948;28;20026;-82
2021/06/24 10:48:26;;;;;;;68.30;40.58;;;;;;;29.47;56.37;98467.41;5010494;28;20119;-82
2021/06/24 10:51:08;;;;;;;56.53;34.13;;;;;;;29.58;56.25;98464.44;5008682;28;20030;-83
2021/06/24 10:53:35;;;;;;;65.22;37.88;;;;;;;29.63;55.75;98458.31;5008034;28;20041;-83
2021/06/24 10:56:01;;;;;;;72.15;40.58;;;;;;;29.67;55.43;98459.06;5007479;28;21266;-86
2021/06/24 10:58:34;;;;;;;76.20;35.90;;;;;;;29.70;55.13;98452.56;5010066;28;20026;-74
2021/06/24 11:01:00;;;;;;;63.25;38.15;;;;;;;29.88;54.61;98450.69;5010149;28;20029;-77
2021/06/24 11:03:36;;;;;;;59.10;33.95;;;;;;;30.08;55.30;98462.91;5010398;28;20109;-80
2021/06/24 11:06:15;;;;;;;70.03;42.15;;;;;;;30.32;54.90;98447.97;5011089;28;20153;-86
2021/06/24 11:08:43;;;;;;;77.75;46.75;;;;;;;30.54;55.07;98443.50;5011518;28;20087;-78
2021/06/24 11:11:17;;;;;;;65.65;40.47;;;;;;;30.71;55.06;98440.81;5009426;28;20084;-80
2021/06/24 11:13:48;;;;;;;76.78;43.13;;;;;;;30.81;54.71;98436.19;5009684;28;20175;-80
2021/06/24 11:16:17;;;;;;;79.20;47.78;;;;;;;30.91;53.91;98434.34;5009322;28;20030;-80